createdAt,value
2019-06-07T00:00:50.963Z,11.50
2019-06-07T00:03:29.035Z,11.50
2019-06-07T00:05:51.152Z,11.50
2019-06-07T00:08:27.184Z,11.40
2019-06-07T00:10:51.751Z,11.40
2019-06-07T00:13:21.004Z,11.40
2019-06-07T00:15:50.270Z,11.50
2019-06-07T00:18:25.685Z,11.40
2019-06-07T00:20:50.911Z,11.40
2019-06-07T00:23:22.726Z,11.50
2019-06-07T00:25:51.319Z,11.50
2019-06-07T00:28:20.505Z,11.50
2019-06-07T00:30:52.020Z,11.50
2019-06-07T00:33:24.072Z,11.50
2019-06-07T00:35:51.908Z,11.60
2019-06-07T00:38:21.950Z,11.60
2019-06-07T00:40:51.360Z,11.50
2019-06-07T00:43:28.034Z,11.50
2019-06-07T00:45:51.485Z,11.40
2019-06-07T00:48:31.325Z,11.40
2019-06-07T00:50:51.621Z,11.40
2019-06-07T00:53:31.059Z,11.40
2019-06-07T00:55:52.344Z,11.40
2019-06-07T00:58:27.175Z,11.30
2019-06-07T01:00:52.483Z,11.40
2019-06-07T01:03:25.258Z,11.30
2019-06-07T01:05:52.906Z,11.20
2019-06-07T01:08:27.710Z,11.20
2019-06-07T01:10:54.455Z,11.10
2019-06-07T01:13:26.473Z,11.10
2019-06-07T01:15:54.702Z,11.10
2019-06-07T01:18:37.360Z,11.10
2019-06-07T01:20:55.120Z,11.00
2019-06-07T01:24:03.208Z,11.00
2019-06-07T01:25:56.144Z,10.90
2019-06-07T01:28:27.084Z,10.90
2019-06-07T01:30:56.831Z,11.00
2019-06-07T01:33:50.260Z,11.00
2019-06-07T01:36:06.401Z,10.90
2019-06-07T01:38:35.668Z,10.90
2019-06-07T01:41:05.282Z,10.90
2019-06-07T01:43:34.902Z,10.90
2019-06-07T01:46:04.082Z,11.00
2019-06-07T01:48:48.915Z,11.00
2019-06-07T01:51:05.275Z,11.00
2019-06-07T01:53:34.773Z,11.00
2019-06-07T01:56:04.130Z,11.00
2019-06-07T01:58:33.678Z,10.90
2019-06-07T02:01:03.296Z,10.90
2019-06-07T02:03:33.392Z,10.80
2019-06-07T02:06:02.958Z,10.90
2019-06-07T02:08:34.375Z,10.80
2019-06-07T02:11:06.036Z,10.80
2019-06-07T02:13:35.365Z,10.80
2019-06-07T02:16:04.648Z,10.80
2019-06-07T02:18:35.059Z,10.70
2019-06-07T02:21:04.867Z,10.70
2019-06-07T02:23:34.231Z,10.70
2019-06-07T02:26:03.884Z,10.70
2019-06-07T02:28:44.628Z,10.70
2019-06-07T02:31:04.056Z,10.70
2019-06-07T02:33:39.586Z,10.70
2019-06-07T02:36:04.672Z,10.70
2019-06-07T02:38:37.493Z,10.70
2019-06-07T02:41:05.209Z,10.70
2019-06-07T02:43:36.910Z,10.70
2019-06-07T02:46:25.481Z,10.70
2019-06-07T02:48:41.556Z,10.70
2019-06-07T02:51:10.891Z,10.60
2019-06-07T02:53:40.512Z,10.60
2019-06-07T02:56:37.264Z,10.60
2019-06-07T02:58:42.065Z,10.50
2019-06-07T03:01:12.012Z,10.50
2019-06-07T03:03:41.826Z,10.50
2019-06-07T03:06:13.582Z,10.50
2019-06-07T03:08:46.179Z,10.50
2019-06-07T03:11:16.484Z,10.50
2019-06-07T03:13:48.042Z,10.40
2019-06-07T03:16:23.563Z,10.40
2019-06-07T03:19:06.525Z,10.40
2019-06-07T03:21:41.850Z,10.40
2019-06-07T03:24:11.274Z,10.50
2019-06-07T03:27:32.186Z,10.40
2019-06-07T03:29:11.905Z,10.40
2019-06-07T03:31:47.576Z,10.40
2019-06-07T03:34:13.338Z,10.50
2019-06-07T03:36:42.619Z,10.50
2019-06-07T03:39:11.774Z,10.40
2019-06-07T03:42:02.549Z,10.40
2019-06-07T03:44:14.093Z,10.50
2019-06-07T03:46:43.671Z,10.60
2019-06-07T03:49:12.868Z,10.60
2019-06-07T03:51:42.487Z,10.60
2019-06-07T03:54:11.701Z,10.60
2019-06-07T03:56:41.249Z,10.60
2019-06-07T03:59:10.492Z,10.70
2019-06-07T04:01:41.297Z,10.70
2019-06-07T04:04:10.671Z,10.80
2019-06-07T04:06:42.458Z,10.80
2019-06-07T04:09:11.139Z,10.90
2019-06-07T04:11:40.898Z,10.90
2019-06-07T04:14:10.652Z,11.00
2019-06-07T04:16:44.118Z,11.00
2019-06-07T04:19:10.789Z,11.10
2019-06-07T04:21:42.805Z,11.10
2019-06-07T04:24:11.076Z,11.10
2019-06-07T04:26:43.595Z,11.10
2019-06-07T04:31:43.295Z,11.20
2019-06-07T04:34:12.767Z,11.40
2019-06-07T04:36:56.285Z,11.40
2019-06-07T04:39:13.677Z,11.50
2019-06-07T04:41:46.272Z,11.50
2019-06-07T04:44:17.213Z,11.60
2019-06-07T04:46:49.729Z,11.70
2019-06-07T04:49:21.548Z,11.90
2019-06-07T04:51:51.535Z,12.00
2019-06-07T04:54:20.868Z,12.10
2019-06-07T04:56:50.373Z,12.30
2019-06-07T05:00:01.236Z,12.30
2019-06-07T05:01:53.164Z,12.40
2019-06-07T05:04:31.734Z,12.50
2019-06-07T05:07:00.944Z,12.50
2019-06-07T05:09:32.685Z,12.70
2019-06-07T05:12:02.117Z,12.80
2019-06-07T05:14:33.196Z,12.90
2019-06-07T05:17:02.390Z,13.00
2019-06-07T05:19:35.209Z,13.00
2019-06-07T05:22:05.093Z,13.20
2019-06-07T05:24:35.577Z,13.20
2019-06-07T05:27:07.769Z,13.30
2019-06-07T05:29:39.220Z,13.50
2019-06-07T05:32:08.629Z,13.70
2019-06-07T05:34:42.014Z,13.90
2019-06-07T05:37:11.991Z,13.90
2019-06-07T05:39:42.570Z,13.90
2019-06-07T05:42:10.740Z,13.80
2019-06-07T05:44:44.127Z,13.50
2019-06-07T05:47:11.466Z,13.30
2019-06-07T05:49:44.520Z,13.30
2019-06-07T05:52:11.868Z,13.20
2019-06-07T05:54:43.179Z,13.20
2019-06-07T05:57:12.207Z,13.30
2019-06-07T05:59:44.887Z,13.30
2019-06-07T06:02:22.153Z,13.40
2019-06-07T06:04:48.707Z,13.50
2019-06-07T06:07:15.095Z,13.60
2019-06-07T06:09:46.120Z,13.50
2019-06-07T06:12:33.441Z,13.50
2019-06-07T06:14:47.059Z,13.40
2019-06-07T06:17:16.469Z,13.40
2019-06-07T06:19:49.650Z,13.40
2019-06-07T06:22:16.639Z,13.50
2019-06-07T06:25:24.305Z,13.70
2019-06-07T06:27:55.609Z,13.80
2019-06-07T06:29:50.413Z,13.90
2019-06-07T06:34:53.671Z,14.00
2019-06-07T06:37:21.570Z,13.80
2019-06-07T06:39:50.862Z,13.70
2019-06-07T06:42:20.070Z,13.80
2019-06-07T06:44:53.864Z,14.30
2019-06-07T06:47:20.616Z,14.60
2019-06-07T06:49:53.970Z,14.60
2019-06-07T06:52:20.855Z,14.50
2019-06-07T06:54:59.224Z,14.60
2019-06-07T06:57:21.015Z,14.70
2019-06-07T06:59:52.531Z,14.80
2019-06-07T07:02:21.560Z,14.80
2019-06-07T07:04:53.440Z,14.80
2019-06-07T07:07:22.996Z,15.00
2019-06-07T07:09:59.028Z,15.20
2019-06-07T07:12:24.308Z,15.20
2019-06-07T07:14:56.047Z,15.10
2019-06-07T07:17:46.946Z,14.90
2019-06-07T07:19:56.161Z,15.00
2019-06-07T07:22:25.807Z,15.00
2019-06-07T07:24:55.090Z,15.20
2019-06-07T07:27:24.393Z,15.50
2019-06-07T07:30:30.016Z,15.60
2019-06-07T07:32:24.748Z,15.80
2019-06-07T07:35:00.085Z,15.90
2019-06-07T07:37:25.341Z,16.00
2019-06-07T07:40:01.676Z,16.30
2019-06-07T07:42:25.495Z,16.30
2019-06-07T07:44:56.718Z,16.60
2019-06-07T07:47:26.018Z,16.90
2019-06-07T07:49:58.772Z,17.10
2019-06-07T07:52:26.687Z,16.90
2019-06-07T07:54:58.182Z,16.90
2019-06-07T07:57:27.135Z,16.80
2019-06-07T08:00:24.748Z,16.70
2019-06-07T08:02:27.940Z,16.70
2019-06-07T08:05:22.488Z,16.90
2019-06-07T08:07:28.646Z,17.40
2019-06-07T08:10:02.944Z,17.60
2019-06-07T08:12:29.479Z,17.70
2019-06-07T08:15:03.254Z,18.10
2019-06-07T08:17:30.524Z,18.60
2019-06-07T08:20:02.989Z,18.50
2019-06-07T08:22:30.791Z,18.90
2019-06-07T08:25:04.173Z,18.90
2019-06-07T08:27:31.635Z,18.70
2019-06-07T08:30:25.707Z,18.90
2019-06-07T08:32:32.365Z,19.00
2019-06-07T08:35:06.218Z,19.10
2019-06-07T08:38:13.971Z,19.00
2019-06-07T08:40:04.377Z,18.70
2019-06-07T08:42:37.229Z,18.60
2019-06-07T08:45:06.032Z,18.70
2019-06-07T08:47:35.333Z,18.90
2019-06-07T08:50:07.899Z,19.00
2019-06-07T08:52:36.277Z,19.10
2019-06-07T08:55:06.081Z,19.30
2019-06-07T08:57:35.631Z,19.50
2019-06-07T09:00:41.812Z,19.50
2019-06-07T09:02:38.186Z,19.60
2019-06-07T09:05:12.450Z,19.70
2019-06-07T09:07:39.678Z,19.70
2019-06-07T09:10:14.790Z,19.70
2019-06-07T09:12:41.450Z,19.80
2019-06-07T09:15:22.672Z,19.90
2019-06-07T09:18:30.620Z,19.90
2019-06-07T09:20:35.815Z,19.80
2019-06-07T09:22:46.965Z,20.10
2019-06-07T09:25:21.044Z,20.10
2019-06-07T09:27:47.602Z,20.10
2019-06-07T09:30:38.249Z,20.10
2019-06-07T09:33:08.942Z,20.30
2019-06-07T09:35:39.371Z,20.60
2019-06-07T09:38:23.629Z,20.50
2019-06-07T09:40:40.241Z,20.60
2019-06-07T09:45:40.861Z,20.90
2019-06-07T09:48:16.241Z,21.00
2019-06-07T09:50:41.553Z,21.00
2019-06-07T09:53:21.776Z,21.00
2019-06-07T09:55:43.048Z,21.10
2019-06-07T10:00:43.283Z,21.20
2019-06-07T10:03:21.377Z,21.40
2019-06-07T10:05:44.670Z,21.50
2019-06-07T10:09:15.152Z,21.60
2019-06-07T10:10:45.003Z,21.80
2019-06-07T10:13:14.514Z,22.00
2019-06-07T10:15:44.053Z,22.10
2019-06-07T10:18:13.236Z,22.10
2019-06-07T10:20:42.946Z,22.20
2019-06-07T10:23:12.198Z,22.40
2019-06-07T10:25:41.435Z,22.50
2019-06-07T10:28:10.684Z,22.20
2019-06-07T10:30:39.923Z,22.30
2019-06-07T10:33:10.484Z,22.50
2019-06-07T10:35:39.893Z,22.60
2019-06-07T10:38:10.646Z,22.70
2019-06-07T10:40:40.484Z,22.80
2019-06-07T10:43:14.028Z,22.90
2019-06-07T10:45:41.037Z,23.10
2019-06-07T10:48:11.747Z,23.10
2019-06-07T10:50:41.574Z,23.20
2019-06-07T10:53:12.478Z,23.00
2019-06-07T10:55:41.864Z,23.00
2019-06-07T10:58:11.266Z,22.80
2019-06-07T11:00:40.862Z,22.80
2019-06-07T11:03:11.805Z,22.90
2019-06-07T11:05:41.507Z,23.00
2019-06-07T11:08:13.094Z,23.00
2019-06-07T11:10:41.665Z,23.10
2019-06-07T11:13:12.379Z,23.10
2019-06-07T11:15:41.755Z,23.10
2019-06-07T11:18:12.552Z,23.10
2019-06-07T11:20:42.214Z,23.20
2019-06-07T11:23:12.272Z,23.40
2019-06-07T11:25:41.492Z,23.40
2019-06-07T11:28:12.560Z,23.80
2019-06-07T11:30:41.926Z,24.40
2019-06-07T11:33:12.347Z,24.80
2019-06-07T11:35:42.526Z,24.90
2019-06-07T11:38:12.622Z,25.00
2019-06-07T11:40:42.117Z,25.10
2019-06-07T11:43:12.744Z,25.40
2019-06-07T11:45:42.146Z,25.80
2019-06-07T11:48:11.502Z,25.70
2019-06-07T11:50:41.140Z,25.10
2019-06-07T11:53:10.776Z,25.00
2019-06-07T11:55:40.172Z,25.00
2019-06-07T11:58:13.192Z,24.90
2019-06-07T12:00:41.205Z,24.80
2019-06-07T12:03:11.548Z,24.80
2019-06-07T12:05:40.963Z,24.50
2019-06-07T12:08:10.268Z,24.20
2019-06-07T12:10:42.477Z,23.90
2019-06-07T12:13:10.992Z,23.60
2019-06-07T12:15:40.237Z,23.30
2019-06-07T12:18:09.437Z,23.20
2019-06-07T12:20:38.825Z,23.00
2019-06-07T12:23:09.971Z,22.90
2019-06-07T12:25:39.424Z,22.80
2019-06-07T12:28:08.773Z,22.60
2019-06-07T12:30:37.996Z,22.70
2019-06-07T12:33:07.359Z,22.60
2019-06-07T12:35:36.700Z,22.60
2019-06-07T12:38:06.366Z,22.50
2019-06-07T12:40:35.655Z,22.40
2019-06-07T12:43:04.933Z,22.30
2019-06-07T12:45:44.527Z,22.30
2019-06-07T12:48:05.575Z,22.40
2019-06-07T12:50:42.663Z,22.40
2019-06-07T12:53:28.074Z,22.50
2019-06-07T12:55:59.984Z,22.50
2019-06-07T12:58:34.478Z,22.60
2019-06-07T13:00:59.828Z,22.70
2019-06-07T13:03:29.587Z,23.00
2019-06-07T13:05:58.916Z,23.00
2019-06-07T13:08:28.438Z,22.80
2019-06-07T13:11:13.662Z,22.60
2019-06-07T13:13:29.109Z,22.30
2019-06-07T13:15:59.161Z,22.10
2019-06-07T13:18:28.644Z,21.90
2019-06-07T13:20:58.172Z,21.70
2019-06-07T13:23:28.880Z,21.60
2019-06-07T13:25:58.769Z,21.40
2019-06-07T13:28:28.940Z,21.30
2019-06-07T13:30:58.393Z,21.10
2019-06-07T13:33:35.437Z,21.00
2019-06-07T13:35:58.968Z,20.90
2019-06-07T13:38:29.104Z,20.70
2019-06-07T13:40:58.561Z,20.60
2019-06-07T13:43:28.438Z,20.50
2019-06-07T13:45:57.828Z,20.40
2019-06-07T13:48:27.827Z,20.30
2019-06-07T13:50:58.113Z,20.10
2019-06-07T13:53:28.932Z,19.80
2019-06-07T13:55:58.732Z,19.50
2019-06-07T13:58:28.724Z,19.20
2019-06-07T14:00:58.133Z,19.00
2019-06-07T14:03:32.740Z,18.80
2019-06-07T14:05:59.150Z,18.40
2019-06-07T14:08:29.735Z,17.90
2019-06-07T14:10:59.188Z,17.30
2019-06-07T14:13:28.399Z,17.00
2019-06-07T14:15:57.663Z,16.70
2019-06-07T14:18:26.907Z,16.60
2019-06-07T14:20:58.832Z,16.50
2019-06-07T14:23:42.730Z,16.40
2019-06-07T14:25:58.508Z,16.40
2019-06-07T14:28:31.801Z,16.50
2019-06-07T14:30:59.483Z,16.50
2019-06-07T14:33:30.155Z,16.40
2019-06-07T14:35:59.898Z,16.40
2019-06-07T14:38:31.273Z,16.40
2019-06-07T14:41:00.489Z,16.40
2019-06-07T14:43:31.610Z,16.40
2019-06-07T14:46:01.124Z,16.40
2019-06-07T14:48:30.696Z,16.20
2019-06-07T14:50:59.957Z,16.30
2019-06-07T14:53:30.716Z,16.20
2019-06-07T14:56:00.330Z,16.20
2019-06-07T14:58:29.613Z,16.10
2019-06-07T15:00:58.899Z,16.10
2019-06-07T15:03:28.430Z,16.10
2019-06-07T15:05:57.719Z,16.10
2019-06-07T15:08:28.451Z,16.00
2019-06-07T15:10:57.801Z,16.00
2019-06-07T15:13:27.538Z,16.00
2019-06-07T15:15:56.883Z,16.10
2019-06-07T15:18:27.621Z,16.10
2019-06-07T15:20:57.082Z,16.00
2019-06-07T15:23:27.025Z,16.00
2019-06-07T15:25:56.489Z,16.00
2019-06-07T15:28:25.755Z,16.00
2019-06-07T15:30:55.342Z,15.90
2019-06-07T15:33:24.726Z,15.80
2019-06-07T15:35:53.967Z,15.80
2019-06-07T15:38:23.630Z,15.70
2019-06-07T15:40:52.859Z,15.60
2019-06-07T15:43:22.035Z,15.50
2019-06-07T15:45:51.278Z,15.50
2019-06-07T15:48:20.535Z,15.50
2019-06-07T15:50:50.135Z,15.30
2019-06-07T15:53:19.723Z,15.20
2019-06-07T15:55:48.961Z,15.10
2019-06-07T15:58:18.660Z,15.00
2019-06-07T16:00:50.006Z,14.90
2019-06-07T16:03:18.860Z,14.80
2019-06-07T16:05:48.209Z,14.80
2019-06-07T16:08:17.542Z,14.70
2019-06-07T16:10:46.710Z,14.60
2019-06-07T16:13:16.010Z,14.60
2019-06-07T16:15:45.710Z,14.50
2019-06-07T16:18:14.948Z,14.40
2019-06-07T16:20:44.218Z,14.40
2019-06-07T16:23:13.827Z,14.40
2019-06-07T16:25:44.254Z,14.30
2019-06-07T16:28:13.776Z,14.30
2019-06-07T16:30:43.097Z,14.30
2019-06-07T16:33:12.774Z,14.30
2019-06-07T16:35:43.202Z,14.30
2019-06-07T16:38:12.986Z,14.40
2019-06-07T16:40:42.501Z,14.40
2019-06-07T16:43:17.964Z,14.50
2019-06-07T16:45:43.082Z,14.60
2019-06-07T16:48:12.679Z,14.70
2019-06-07T16:50:42.953Z,14.70
2019-06-07T16:53:12.425Z,14.70
2019-06-07T16:55:42.739Z,14.70
2019-06-07T16:58:12.328Z,14.80
2019-06-07T17:00:42.255Z,15.00
2019-06-07T17:03:11.957Z,15.20
2019-06-07T17:05:45.051Z,15.40
2019-06-07T17:08:12.530Z,15.50
2019-06-07T17:10:42.528Z,15.70
2019-06-07T17:13:12.113Z,15.70
2019-06-07T17:15:42.682Z,15.70
2019-06-07T17:18:12.079Z,15.70
2019-06-07T17:20:41.433Z,15.60
2019-06-07T17:23:10.971Z,15.60
2019-06-07T17:25:41.342Z,15.60
2019-06-07T17:28:10.637Z,15.60
2019-06-07T17:30:39.939Z,15.70
2019-06-07T17:33:09.249Z,15.80
2019-06-07T17:35:40.112Z,15.90
2019-06-07T17:38:09.481Z,15.90
2019-06-07T17:40:38.724Z,15.90
2019-06-07T17:43:07.953Z,15.80
2019-06-07T17:45:37.633Z,15.70
2019-06-07T17:48:06.890Z,15.60
2019-06-07T17:50:36.146Z,15.50
2019-06-07T17:53:05.398Z,15.50
2019-06-07T17:55:34.768Z,15.50
2019-06-07T17:58:04.100Z,15.50
2019-06-07T18:00:51.276Z,15.50
2019-06-07T18:03:20.695Z,15.50
2019-06-07T18:05:51.382Z,15.60
2019-06-07T18:08:22.160Z,15.60
2019-06-07T18:10:52.074Z,15.60
2019-06-07T18:13:21.495Z,15.70
2019-06-07T18:15:56.461Z,15.70
2019-06-07T18:18:22.495Z,15.70
2019-06-07T18:20:51.846Z,15.60
2019-06-07T18:23:21.362Z,15.70
2019-06-07T18:25:50.678Z,15.70
2019-06-07T18:28:20.024Z,15.70
2019-06-07T18:30:50.703Z,15.70
2019-06-07T18:33:20.412Z,15.70
2019-06-07T18:35:51.219Z,15.70
2019-06-07T18:38:21.347Z,15.80
2019-06-07T18:40:51.243Z,15.90
2019-06-07T18:43:20.769Z,16.00
2019-06-07T18:45:51.428Z,16.00
2019-06-07T18:48:20.836Z,16.00
2019-06-07T18:50:50.669Z,15.80
2019-06-07T18:53:20.042Z,15.70
2019-06-07T18:55:49.936Z,15.60
2019-06-07T18:58:19.300Z,15.50
2019-06-07T19:00:49.846Z,15.40
2019-06-07T19:03:19.346Z,15.40
2019-06-07T19:05:49.948Z,15.40
2019-06-07T19:08:19.389Z,15.30
2019-06-07T19:10:48.728Z,15.20
2019-06-07T19:13:18.580Z,15.10
2019-06-07T19:15:49.284Z,15.00
2019-06-07T19:18:18.633Z,14.90
2019-06-07T19:20:48.209Z,14.90
2019-06-07T19:23:17.535Z,14.80
2019-06-07T19:25:46.896Z,14.70
2019-06-07T19:28:16.494Z,14.70
2019-06-07T19:30:46.006Z,14.60
2019-06-07T19:33:15.326Z,14.60
2019-06-07T19:35:44.506Z,14.60
2019-06-07T19:38:16.899Z,14.60
2019-06-07T19:40:45.123Z,14.50
2019-06-07T19:43:14.463Z,14.50
2019-06-07T19:45:43.967Z,14.50
2019-06-07T19:48:13.303Z,14.50
2019-06-07T19:50:42.585Z,14.50
2019-06-07T19:53:11.921Z,14.40
2019-06-07T19:55:41.218Z,14.50
2019-06-07T19:58:10.468Z,14.40
2019-06-07T20:00:39.873Z,14.40
2019-06-07T20:03:09.101Z,14.40
2019-06-07T20:05:38.482Z,14.50
2019-06-07T20:08:07.673Z,14.50
2019-06-07T20:10:36.939Z,14.60
2019-06-07T20:13:06.113Z,14.70
2019-06-07T20:15:35.761Z,14.70
2019-06-07T20:18:05.542Z,14.70
2019-06-07T20:20:35.136Z,14.80
2019-06-07T20:23:05.322Z,14.90
2019-06-07T20:25:34.800Z,14.90
2019-06-07T20:28:05.426Z,15.00
2019-06-07T20:30:35.396Z,15.00
2019-06-07T20:33:06.017Z,15.00
2019-06-07T20:35:35.506Z,15.10
2019-06-07T20:38:05.672Z,15.00
2019-06-07T20:40:35.085Z,15.00
2019-06-07T20:43:05.637Z,15.00
2019-06-07T20:45:35.228Z,15.00
2019-06-07T20:48:04.483Z,15.00
2019-06-07T20:50:33.736Z,15.10
2019-06-07T20:53:03.212Z,15.10
2019-06-07T20:55:32.618Z,15.10
2019-06-07T20:58:03.707Z,15.10
2019-06-07T21:00:33.204Z,15.10
2019-06-07T21:03:03.311Z,15.10
2019-06-07T21:05:35.115Z,15.20
2019-06-07T21:08:08.930Z,15.20
2019-06-07T21:10:35.556Z,15.20
2019-06-07T21:13:05.965Z,15.30
2019-06-07T21:15:47.881Z,15.40
2019-06-07T21:18:16.273Z,15.40
2019-06-07T21:20:37.250Z,15.40
2019-06-07T21:23:06.850Z,15.40
2019-06-07T21:25:36.477Z,15.40
2019-06-07T21:28:07.281Z,15.40
2019-06-07T21:30:36.633Z,15.30
2019-06-07T21:33:05.871Z,15.30
2019-06-07T21:35:35.137Z,15.30
2019-06-07T21:38:05.963Z,15.20
2019-06-07T21:40:35.405Z,15.20
2019-06-07T21:43:04.651Z,15.20
2019-06-07T21:45:34.281Z,15.10
2019-06-07T21:48:05.049Z,15.10
2019-06-07T21:50:34.350Z,15.10
2019-06-07T21:53:04.523Z,15.10
2019-06-07T21:55:33.821Z,15.00
2019-06-07T21:58:03.113Z,14.90
2019-06-07T22:01:11.966Z,14.80
2019-06-07T22:03:41.440Z,14.80
2019-06-07T22:06:11.747Z,14.80
2019-06-07T22:08:41.146Z,14.80
2019-06-07T22:11:10.344Z,14.80
2019-06-07T22:13:40.052Z,14.80
2019-06-07T22:16:24.557Z,14.80
2019-06-07T22:18:40.241Z,14.80
2019-06-07T22:21:10.652Z,14.80
2019-06-07T22:23:43.469Z,14.70
2019-06-07T22:26:11.326Z,14.80
2019-06-07T22:28:40.640Z,14.80
2019-06-07T22:31:10.731Z,14.80
2019-06-07T22:33:40.156Z,14.80
2019-06-07T22:36:09.329Z,14.80
2019-06-07T22:38:38.545Z,14.80
2019-06-07T22:41:07.768Z,14.80
2019-06-07T22:43:36.932Z,14.80
2019-06-07T22:46:06.728Z,14.80
2019-06-07T22:48:36.078Z,14.80
2019-06-07T22:51:09.390Z,14.80
2019-06-07T22:53:42.461Z,14.80
2019-06-07T22:56:38.097Z,14.80
2019-06-07T22:59:08.350Z,14.80
2019-06-07T23:01:38.552Z,14.70
2019-06-07T23:04:08.500Z,14.70
2019-06-07T23:06:38.032Z,14.60
2019-06-07T23:09:08.810Z,14.50
2019-06-07T23:11:38.034Z,14.60
2019-06-07T23:14:07.306Z,14.60
2019-06-07T23:16:51.598Z,14.70
2019-06-07T23:19:07.744Z,14.70
2019-06-07T23:21:37.335Z,14.70
2019-06-07T23:24:06.640Z,14.70
2019-06-07T23:26:35.864Z,14.80
2019-06-07T23:29:05.725Z,14.80
2019-06-07T23:31:35.223Z,14.90
2019-06-07T23:34:04.852Z,14.80
2019-06-07T23:36:34.082Z,14.80
2019-06-07T23:39:03.596Z,14.80
2019-06-07T23:41:32.743Z,14.80
2019-06-07T23:44:01.917Z,14.80
2019-06-07T23:46:31.559Z,14.80
2019-06-07T23:49:00.768Z,14.80
2019-06-07T23:51:30.023Z,14.80
2019-06-07T23:53:59.279Z,14.80
2019-06-07T23:56:28.440Z,14.70
2019-06-07T23:58:57.838Z,14.70
